sensor_id;sensor_type;location;lat;lon;timestamp;temperature;humidity
84298;DHT22;74466;51.188;3.242;2024-03-06T00:02:24;8.60;92.50
84298;DHT22;74466;51.188;3.242;2024-03-06T00:04:50;8.60;92.40
84298;DHT22;74466;51.188;3.242;2024-03-06T00:07:16;8.60;92.40
84298;DHT22;74466;51.188;3.242;2024-03-06T00:09:42;8.60;93.10
84298;DHT22;74466;51.188;3.242;2024-03-06T00:12:08;8.60;92.50
84298;DHT22;74466;51.188;3.242;2024-03-06T00:14:34;8.50;92.40
84298;DHT22;74466;51.188;3.242;2024-03-06T00:17:02;8.50;92.60
84298;DHT22;74466;51.188;3.242;2024-03-06T00:19:32;8.50;92.50
84298;DHT22;74466;51.188;3.242;2024-03-06T00:21:59;8.50;92.40
84298;DHT22;74466;51.188;3.242;2024-03-06T00:24:25;8.50;92.40
84298;DHT22;74466;51.188;3.242;2024-03-06T00:26:51;8.50;92.40
84298;DHT22;74466;51.188;3.242;2024-03-06T00:29:16;8.50;92.30
84298;DHT22;74466;51.188;3.242;2024-03-06T00:31:43;8.40;92.40
84298;DHT22;74466;51.188;3.242;2024-03-06T00:34:10;8.50;92.30
84298;DHT22;74466;51.188;3.242;2024-03-06T00:36:37;8.40;92.40
84298;DHT22;74466;51.188;3.242;2024-03-06T00:39:03;8.30;92.40
84298;DHT22;74466;51.188;3.242;2024-03-06T00:41:30;8.40;92.40
84298;DHT22;74466;51.188;3.242;2024-03-06T00:43:56;8.30;92.40
84298;DHT22;74466;51.188;3.242;2024-03-06T00:46:22;8.40;92.40
84298;DHT22;74466;51.188;3.242;2024-03-06T00:48:48;8.30;92.40
84298;DHT22;74466;51.188;3.242;2024-03-06T00:51:14;8.30;92.50
84298;DHT22;74466;51.188;3.242;2024-03-06T00:53:40;8.30;92.50
84298;DHT22;74466;51.188;3.242;2024-03-06T00:56:06;8.30;92.50
84298;DHT22;74466;51.188;3.242;2024-03-06T00:58:32;8.30;92.50
84298;DHT22;74466;51.188;3.242;2024-03-06T01:00:58;8.20;92.50
84298;DHT22;74466;51.188;3.242;2024-03-06T01:03:24;8.20;92.60
84298;DHT22;74466;51.188;3.242;2024-03-06T01:05:50;8.20;92.50
84298;DHT22;74466;51.188;3.242;2024-03-06T01:08:17;8.10;92.50
84298;DHT22;74466;51.188;3.242;2024-03-06T01:10:43;8.10;92.50
84298;DHT22;74466;51.188;3.242;2024-03-06T01:13:09;8.10;92.30
84298;DHT22;74466;51.188;3.242;2024-03-06T01:15:37;8.10;92.30
84298;DHT22;74466;51.188;3.242;2024-03-06T01:18:03;8.00;92.30
84298;DHT22;74466;51.188;3.242;2024-03-06T01:20:28;8.00;92.50
84298;DHT22;74466;51.188;3.242;2024-03-06T01:22:54;7.90;92.60
84298;DHT22;74466;51.188;3.242;2024-03-06T01:25:20;8.00;92.50
84298;DHT22;74466;51.188;3.242;2024-03-06T01:27:48;8.00;92.40
84298;DHT22;74466;51.188;3.242;2024-03-06T01:30:14;7.90;92.40
84298;DHT22;74466;51.188;3.242;2024-03-06T01:32:40;7.90;92.40
84298;DHT22;74466;51.188;3.242;2024-03-06T01:35:06;7.90;92.40
84298;DHT22;74466;51.188;3.242;2024-03-06T01:37:33;7.80;92.50
84298;DHT22;74466;51.188;3.242;2024-03-06T01:39:58;7.80;92.70
84298;DHT22;74466;51.188;3.242;2024-03-06T01:42:24;7.70;92.60
84298;DHT22;74466;51.188;3.242;2024-03-06T01:44:50;7.70;92.60
84298;DHT22;74466;51.188;3.242;2024-03-06T01:47:16;7.70;92.70
84298;DHT22;74466;51.188;3.242;2024-03-06T01:49:42;7.70;92.90
84298;DHT22;74466;51.188;3.242;2024-03-06T01:52:11;7.70;92.70
84298;DHT22;74466;51.188;3.242;2024-03-06T01:54:38;7.60;92.70
84298;DHT22;74466;51.188;3.242;2024-03-06T01:57:06;7.60;92.80
84298;DHT22;74466;51.188;3.242;2024-03-06T01:59:33;7.50;92.90
84298;DHT22;74466;51.188;3.242;2024-03-06T02:02:00;7.50;92.90
84298;DHT22;74466;51.188;3.242;2024-03-06T02:04:29;7.50;92.90
84298;DHT22;74466;51.188;3.242;2024-03-06T02:06:56;7.40;92.90
84298;DHT22;74466;51.188;3.242;2024-03-06T02:09:23;7.40;92.90
84298;DHT22;74466;51.188;3.242;2024-03-06T02:11:49;7.40;93.00
84298;DHT22;74466;51.188;3.242;2024-03-06T02:14:16;7.30;93.00
84298;DHT22;74466;51.188;3.242;2024-03-06T02:16:41;7.30;92.90
84298;DHT22;74466;51.188;3.242;2024-03-06T02:19:08;7.30;92.80
84298;DHT22;74466;51.188;3.242;2024-03-06T02:21:34;7.30;92.80
84298;DHT22;74466;51.188;3.242;2024-03-06T02:24:00;7.20;92.80
84298;DHT22;74466;51.188;3.242;2024-03-06T02:26:25;7.20;92.70
84298;DHT22;74466;51.188;3.242;2024-03-06T02:28:53;7.20;92.80
84298;DHT22;74466;51.188;3.242;2024-03-06T02:31:19;7.20;92.80
84298;DHT22;74466;51.188;3.242;2024-03-06T02:33:46;7.20;92.90
84298;DHT22;74466;51.188;3.242;2024-03-06T02:36:16;7.20;92.80
84298;DHT22;74466;51.188;3.242;2024-03-06T02:38:43;7.10;92.80
84298;DHT22;74466;51.188;3.242;2024-03-06T02:41:09;7.10;92.90
84298;DHT22;74466;51.188;3.242;2024-03-06T02:43:37;7.10;92.80
84298;DHT22;74466;51.188;3.242;2024-03-06T02:46:03;7.10;92.80
84298;DHT22;74466;51.188;3.242;2024-03-06T02:48:30;7.00;92.80
84298;DHT22;74466;51.188;3.242;2024-03-06T02:50:56;7.00;92.70
84298;DHT22;74466;51.188;3.242;2024-03-06T02:53:22;6.90;92.70
84298;DHT22;74466;51.188;3.242;2024-03-06T02:55:48;6.80;92.70
84298;DHT22;74466;51.188;3.242;2024-03-06T02:58:14;6.80;92.80
84298;DHT22;74466;51.188;3.242;2024-03-06T03:00:45;6.80;93.00
84298;DHT22;74466;51.188;3.242;2024-03-06T03:03:10;6.70;92.90
84298;DHT22;74466;51.188;3.242;2024-03-06T03:05:40;6.70;92.70
84298;DHT22;74466;51.188;3.242;2024-03-06T03:08:09;6.70;92.60
84298;DHT22;74466;51.188;3.242;2024-03-06T03:10:34;6.60;92.60
84298;DHT22;74466;51.188;3.242;2024-03-06T03:13:00;6.60;92.70
84298;DHT22;74466;51.188;3.242;2024-03-06T03:15:26;6.60;92.70
84298;DHT22;74466;51.188;3.242;2024-03-06T03:17:52;6.50;92.80
84298;DHT22;74466;51.188;3.242;2024-03-06T03:20:17;6.50;92.90
84298;DHT22;74466;51.188;3.242;2024-03-06T03:22:43;6.50;93.10
84298;DHT22;74466;51.188;3.242;2024-03-06T03:25:10;6.50;93.20
84298;DHT22;74466;51.188;3.242;2024-03-06T03:27:38;6.50;93.40
84298;DHT22;74466;51.188;3.242;2024-03-06T03:30:08;6.50;93.70
84298;DHT22;74466;51.188;3.242;2024-03-06T03:32:37;6.50;93.70
84298;DHT22;74466;51.188;3.242;2024-03-06T03:35:07;6.50;93.50
84298;DHT22;74466;51.188;3.242;2024-03-06T03:37:33;6.50;93.40
84298;DHT22;74466;51.188;3.242;2024-03-06T03:39:59;6.50;93.40
84298;DHT22;74466;51.188;3.242;2024-03-06T03:42:25;6.40;93.30
84298;DHT22;74466;51.188;3.242;2024-03-06T03:44:50;6.40;93.30
84298;DHT22;74466;51.188;3.242;2024-03-06T03:47:16;6.40;93.20
84298;DHT22;74466;51.188;3.242;2024-03-06T03:49:42;6.40;93.30
84298;DHT22;74466;51.188;3.242;2024-03-06T03:52:08;6.50;93.30
84298;DHT22;74466;51.188;3.242;2024-03-06T03:54:33;6.40;93.80
84298;DHT22;74466;51.188;3.242;2024-03-06T03:57:00;6.40;94.30
84298;DHT22;74466;51.188;3.242;2024-03-06T03:59:26;6.40;94.60
84298;DHT22;74466;51.188;3.242;2024-03-06T04:01:52;6.50;94.60
84298;DHT22;74466;51.188;3.242;2024-03-06T04:04:18;6.60;94.50
84298;DHT22;74466;51.188;3.242;2024-03-06T04:06:44;6.70;95.00
84298;DHT22;74466;51.188;3.242;2024-03-06T04:09:11;6.70;95.10
84298;DHT22;74466;51.188;3.242;2024-03-06T04:11:37;6.80;95.20
84298;DHT22;74466;51.188;3.242;2024-03-06T04:14:04;6.90;95.00
84298;DHT22;74466;51.188;3.242;2024-03-06T04:16:29;7.00;94.90
84298;DHT22;74466;51.188;3.242;2024-03-06T04:18:55;7.10;94.90
84298;DHT22;74466;51.188;3.242;2024-03-06T04:21:21;7.20;94.90
84298;DHT22;74466;51.188;3.242;2024-03-06T04:23:48;7.30;94.80
84298;DHT22;74466;51.188;3.242;2024-03-06T04:26:14;7.30;94.80
84298;DHT22;74466;51.188;3.242;2024-03-06T04:28:40;7.40;94.90
84298;DHT22;74466;51.188;3.242;2024-03-06T04:31:05;7.40;94.90
84298;DHT22;74466;51.188;3.242;2024-03-06T04:33:31;7.40;94.90
84298;DHT22;74466;51.188;3.242;2024-03-06T04:35:57;7.50;94.90
84298;DHT22;74466;51.188;3.242;2024-03-06T04:38:22;7.50;94.70
84298;DHT22;74466;51.188;3.242;2024-03-06T04:40:48;7.50;94.90
84298;DHT22;74466;51.188;3.242;2024-03-06T04:43:14;7.60;94.90
84298;DHT22;74466;51.188;3.242;2024-03-06T04:45:39;7.60;94.60
84298;DHT22;74466;51.188;3.242;2024-03-06T04:48:06;7.60;94.60
84298;DHT22;74466;51.188;3.242;2024-03-06T04:50:32;7.60;94.60
84298;DHT22;74466;51.188;3.242;2024-03-06T04:52:58;7.50;94.70
84298;DHT22;74466;51.188;3.242;2024-03-06T04:55:24;7.50;94.70
84298;DHT22;74466;51.188;3.242;2024-03-06T04:57:51;7.60;94.80
84298;DHT22;74466;51.188;3.242;2024-03-06T05:00:18;7.50;94.90
84298;DHT22;74466;51.188;3.242;2024-03-06T05:02:44;7.60;94.80
84298;DHT22;74466;51.188;3.242;2024-03-06T05:05:09;7.60;94.70
84298;DHT22;74466;51.188;3.242;2024-03-06T05:07:35;7.60;94.80
84298;DHT22;74466;51.188;3.242;2024-03-06T05:10:01;7.50;95.00
84298;DHT22;74466;51.188;3.242;2024-03-06T05:12:27;7.60;95.00
84298;DHT22;74466;51.188;3.242;2024-03-06T05:14:54;7.70;94.80
84298;DHT22;74466;51.188;3.242;2024-03-06T05:17:20;7.70;94.50
84298;DHT22;74466;51.188;3.242;2024-03-06T05:19:47;7.80;94.50
84298;DHT22;74466;51.188;3.242;2024-03-06T05:22:15;7.80;94.40
84298;DHT22;74466;51.188;3.242;2024-03-06T05:24:41;7.80;94.50
84298;DHT22;74466;51.188;3.242;2024-03-06T05:27:08;7.70;94.60
84298;DHT22;74466;51.188;3.242;2024-03-06T05:29:35;7.70;94.70
84298;DHT22;74466;51.188;3.242;2024-03-06T05:32:02;7.70;94.80
84298;DHT22;74466;51.188;3.242;2024-03-06T05:34:29;7.80;94.70
84298;DHT22;74466;51.188;3.242;2024-03-06T05:36:55;7.60;95.00
84298;DHT22;74466;51.188;3.242;2024-03-06T05:39:21;7.60;94.90
84298;DHT22;74466;51.188;3.242;2024-03-06T05:41:46;7.60;95.10
84298;DHT22;74466;51.188;3.242;2024-03-06T05:44:12;7.70;95.00
84298;DHT22;74466;51.188;3.242;2024-03-06T05:46:38;7.80;94.60
84298;DHT22;74466;51.188;3.242;2024-03-06T05:49:03;7.70;94.60
84298;DHT22;74466;51.188;3.242;2024-03-06T05:51:30;7.70;94.60
84298;DHT22;74466;51.188;3.242;2024-03-06T05:53:56;7.70;94.70
84298;DHT22;74466;51.188;3.242;2024-03-06T05:56:22;7.70;94.60
84298;DHT22;74466;51.188;3.242;2024-03-06T05:58:47;7.70;94.70
84298;DHT22;74466;51.188;3.242;2024-03-06T06:01:17;7.70;94.60
84298;DHT22;74466;51.188;3.242;2024-03-06T06:03:46;7.70;94.50
84298;DHT22;74466;51.188;3.242;2024-03-06T06:06:17;7.70;94.60
84298;DHT22;74466;51.188;3.242;2024-03-06T06:08:46;7.70;94.60
84298;DHT22;74466;51.188;3.242;2024-03-06T06:11:12;7.80;94.60
84298;DHT22;74466;51.188;3.242;2024-03-06T06:13:38;7.90;94.40
84298;DHT22;74466;51.188;3.242;2024-03-06T06:16:07;7.90;94.30
84298;DHT22;74466;51.188;3.242;2024-03-06T06:18:33;7.90;94.30
84298;DHT22;74466;51.188;3.242;2024-03-06T06:20:59;7.80;94.30
84298;DHT22;74466;51.188;3.242;2024-03-06T06:23:25;7.90;94.30
84298;DHT22;74466;51.188;3.242;2024-03-06T06:25:51;7.90;94.30
84298;DHT22;74466;51.188;3.242;2024-03-06T06:28:17;8.00;94.10
84298;DHT22;74466;51.188;3.242;2024-03-06T06:30:43;7.90;94.00
84298;DHT22;74466;51.188;3.242;2024-03-06T06:33:08;7.70;94.10
84298;DHT22;74466;51.188;3.242;2024-03-06T06:35:35;7.60;94.30
84298;DHT22;74466;51.188;3.242;2024-03-06T06:38:01;7.60;94.50
84298;DHT22;74466;51.188;3.242;2024-03-06T06:40:27;7.70;94.50
84298;DHT22;74466;51.188;3.242;2024-03-06T06:42:53;7.70;94.40
84298;DHT22;74466;51.188;3.242;2024-03-06T06:45:20;7.60;94.60
84298;DHT22;74466;51.188;3.242;2024-03-06T06:47:48;7.60;94.60
84298;DHT22;74466;51.188;3.242;2024-03-06T06:50:14;7.60;94.60
84298;DHT22;74466;51.188;3.242;2024-03-06T06:52:40;7.60;94.50
84298;DHT22;74466;51.188;3.242;2024-03-06T06:55:06;7.60;94.40
84298;DHT22;74466;51.188;3.242;2024-03-06T06:57:32;7.50;94.60
84298;DHT22;74466;51.188;3.242;2024-03-06T07:00:02;7.30;94.70
84298;DHT22;74466;51.188;3.242;2024-03-06T07:02:45;7.40;94.90
84298;DHT22;74466;51.188;3.242;2024-03-06T07:05:11;7.60;94.70
84298;DHT22;74466;51.188;3.242;2024-03-06T07:07:37;7.60;94.50
84298;DHT22;74466;51.188;3.242;2024-03-06T07:10:04;7.60;94.40
84298;DHT22;74466;51.188;3.242;2024-03-06T07:12:31;7.60;94.50
84298;DHT22;74466;51.188;3.242;2024-03-06T07:14:57;7.60;94.50
84298;DHT22;74466;51.188;3.242;2024-03-06T07:17:23;7.60;94.30
84298;DHT22;74466;51.188;3.242;2024-03-06T07:19:49;7.40;94.30
84298;DHT22;74466;51.188;3.242;2024-03-06T07:22:15;7.20;94.80
84298;DHT22;74466;51.188;3.242;2024-03-06T07:24:42;7.20;95.20
84298;DHT22;74466;51.188;3.242;2024-03-06T07:27:08;7.30;95.30
84298;DHT22;74466;51.188;3.242;2024-03-06T07:29:37;7.40;95.10
84298;DHT22;74466;51.188;3.242;2024-03-06T07:32:03;7.50;94.80
84298;DHT22;74466;51.188;3.242;2024-03-06T07:34:30;7.60;94.60
84298;DHT22;74466;51.188;3.242;2024-03-06T07:36:56;7.40;94.70
84298;DHT22;74466;51.188;3.242;2024-03-06T07:39:23;7.30;95.30
84298;DHT22;74466;51.188;3.242;2024-03-06T07:41:49;7.30;95.10
84298;DHT22;74466;51.188;3.242;2024-03-06T07:44:15;7.30;95.40
84298;DHT22;74466;51.188;3.242;2024-03-06T07:46:40;7.30;95.40
84298;DHT22;74466;51.188;3.242;2024-03-06T07:49:06;7.40;95.40
84298;DHT22;74466;51.188;3.242;2024-03-06T07:51:32;7.40;95.30
84298;DHT22;74466;51.188;3.242;2024-03-06T07:53:58;7.50;95.20
84298;DHT22;74466;51.188;3.242;2024-03-06T07:56:25;7.60;95.30
84298;DHT22;74466;51.188;3.242;2024-03-06T07:58:51;7.80;95.00
84298;DHT22;74466;51.188;3.242;2024-03-06T08:01:17;7.90;94.80
84298;DHT22;74466;51.188;3.242;2024-03-06T08:03:43;7.90;94.50
84298;DHT22;74466;51.188;3.242;2024-03-06T08:06:10;7.90;94.50
84298;DHT22;74466;51.188;3.242;2024-03-06T08:08:36;7.90;94.70
84298;DHT22;74466;51.188;3.242;2024-03-06T08:11:02;7.90;94.60
84298;DHT22;74466;51.188;3.242;2024-03-06T08:13:28;7.90;94.70
84298;DHT22;74466;51.188;3.242;2024-03-06T08:15:54;8.10;94.60
84298;DHT22;74466;51.188;3.242;2024-03-06T08:18:20;8.20;94.40
84298;DHT22;74466;51.188;3.242;2024-03-06T08:20:46;8.30;94.30
84298;DHT22;74466;51.188;3.242;2024-03-06T08:23:11;8.40;94.20
84298;DHT22;74466;51.188;3.242;2024-03-06T08:25:37;8.40;94.10
84298;DHT22;74466;51.188;3.242;2024-03-06T08:28:03;8.40;93.90
84298;DHT22;74466;51.188;3.242;2024-03-06T08:30:31;8.30;93.40
84298;DHT22;74466;51.188;3.242;2024-03-06T08:32:58;8.30;94.00
84298;DHT22;74466;51.188;3.242;2024-03-06T08:35:24;8.30;93.80
84298;DHT22;74466;51.188;3.242;2024-03-06T08:37:50;8.30;93.80
84298;DHT22;74466;51.188;3.242;2024-03-06T08:40:17;8.50;93.80
84298;DHT22;74466;51.188;3.242;2024-03-06T08:42:46;8.50;93.60
84298;DHT22;74466;51.188;3.242;2024-03-06T08:45:18;8.50;93.70
84298;DHT22;74466;51.188;3.242;2024-03-06T08:47:45;8.30;93.60
84298;DHT22;74466;51.188;3.242;2024-03-06T08:50:11;8.30;93.50
84298;DHT22;74466;51.188;3.242;2024-03-06T08:52:38;8.40;93.80
84298;DHT22;74466;51.188;3.242;2024-03-06T08:55:04;8.60;93.60
84298;DHT22;74466;51.188;3.242;2024-03-06T08:57:34;8.60;93.30
84298;DHT22;74466;51.188;3.242;2024-03-06T09:00:01;8.60;93.10
84298;DHT22;74466;51.188;3.242;2024-03-06T09:02:27;8.70;93.30
84298;DHT22;74466;51.188;3.242;2024-03-06T09:04:53;8.80;93.40
84298;DHT22;74466;51.188;3.242;2024-03-06T09:07:19;8.90;93.40
84298;DHT22;74466;51.188;3.242;2024-03-06T09:09:46;9.00;93.20
84298;DHT22;74466;51.188;3.242;2024-03-06T09:12:11;9.10;92.90
84298;DHT22;74466;51.188;3.242;2024-03-06T09:14:40;9.20;92.70
84298;DHT22;74466;51.188;3.242;2024-03-06T09:17:11;9.20;92.50
84298;DHT22;74466;51.188;3.242;2024-03-06T09:19:40;9.10;92.10
84298;DHT22;74466;51.188;3.242;2024-03-06T09:22:08;9.10;92.80
84298;DHT22;74466;51.188;3.242;2024-03-06T09:24:34;9.00;92.70
84298;DHT22;74466;51.188;3.242;2024-03-06T09:27:04;9.10;93.20
84298;DHT22;74466;51.188;3.242;2024-03-06T09:29:30;9.20;93.40
84298;DHT22;74466;51.188;3.242;2024-03-06T09:31:56;9.40;92.70
84298;DHT22;74466;51.188;3.242;2024-03-06T09:34:22;9.60;92.40
84298;DHT22;74466;51.188;3.242;2024-03-06T09:36:49;9.70;92.00
84298;DHT22;74466;51.188;3.242;2024-03-06T09:39:17;9.80;92.10
84298;DHT22;74466;51.188;3.242;2024-03-06T09:41:51;9.90;91.70
84298;DHT22;74466;51.188;3.242;2024-03-06T09:44:18;10.00;91.60
84298;DHT22;74466;51.188;3.242;2024-03-06T09:46:46;10.10;91.20
84298;DHT22;74466;51.188;3.242;2024-03-06T09:49:15;10.30;91.10
84298;DHT22;74466;51.188;3.242;2024-03-06T09:51:43;10.40;90.00
84298;DHT22;74466;51.188;3.242;2024-03-06T09:54:12;10.50;90.30
84298;DHT22;74466;51.188;3.242;2024-03-06T09:56:41;10.70;90.30
84298;DHT22;74466;51.188;3.242;2024-03-06T09:59:08;10.90;90.20
84298;DHT22;74466;51.188;3.242;2024-03-06T10:01:39;10.90;90.20
84298;DHT22;74466;51.188;3.242;2024-03-06T10:04:22;11.00;89.70
84298;DHT22;74466;51.188;3.242;2024-03-06T10:06:49;11.20;88.40
84298;DHT22;74466;51.188;3.242;2024-03-06T10:09:19;11.30;86.50
84298;DHT22;74466;51.188;3.242;2024-03-06T10:11:45;11.50;86.90
84298;DHT22;74466;51.188;3.242;2024-03-06T10:14:11;11.30;87.10
84298;DHT22;74466;51.188;3.242;2024-03-06T10:16:37;11.20;86.00
84298;DHT22;74466;51.188;3.242;2024-03-06T10:19:16;11.20;88.70
84298;DHT22;74466;51.188;3.242;2024-03-06T10:21:48;11.60;88.30
84298;DHT22;74466;51.188;3.242;2024-03-06T10:24:22;11.90;85.70
84298;DHT22;74466;51.188;3.242;2024-03-06T10:26:52;12.10;85.10
84298;DHT22;74466;51.188;3.242;2024-03-06T10:29:20;12.30;83.70
84298;DHT22;74466;51.188;3.242;2024-03-06T10:31:51;12.60;83.20
84298;DHT22;74466;51.188;3.242;2024-03-06T10:34:17;12.70;82.00
84298;DHT22;74466;51.188;3.242;2024-03-06T10:36:43;12.60;81.20
84298;DHT22;74466;51.188;3.242;2024-03-06T10:39:12;12.70;81.70
84298;DHT22;74466;51.188;3.242;2024-03-06T10:41:41;12.90;82.00
84298;DHT22;74466;51.188;3.242;2024-03-06T10:44:12;13.00;81.00
84298;DHT22;74466;51.188;3.242;2024-03-06T10:46:44;13.00;80.20
84298;DHT22;74466;51.188;3.242;2024-03-06T10:49:13;13.00;80.20
84298;DHT22;74466;51.188;3.242;2024-03-06T10:51:42;13.10;80.50
84298;DHT22;74466;51.188;3.242;2024-03-06T10:54:09;13.40;80.10
84298;DHT22;74466;51.188;3.242;2024-03-06T10:56:39;13.60;78.60
84298;DHT22;74466;51.188;3.242;2024-03-06T10:59:11;13.70;77.50
84298;DHT22;74466;51.188;3.242;2024-03-06T11:01:39;13.60;80.10
84298;DHT22;74466;51.188;3.242;2024-03-06T11:04:06;13.70;77.00
84298;DHT22;74466;51.188;3.242;2024-03-06T11:06:33;13.70;76.70
84298;DHT22;74466;51.188;3.242;2024-03-06T11:09:00;13.90;77.10
84298;DHT22;74466;51.188;3.242;2024-03-06T11:11:27;14.20;78.30
84298;DHT22;74466;51.188;3.242;2024-03-06T11:14:00;14.30;76.10
84298;DHT22;74466;51.188;3.242;2024-03-06T11:16:31;14.60;76.10
84298;DHT22;74466;51.188;3.242;2024-03-06T11:19:08;14.50;75.10
84298;DHT22;74466;51.188;3.242;2024-03-06T11:21:37;14.60;74.80
84298;DHT22;74466;51.188;3.242;2024-03-06T11:24:24;14.80;74.20
84298;DHT22;74466;51.188;3.242;2024-03-06T11:26:59;14.90;74.20
84298;DHT22;74466;51.188;3.242;2024-03-06T11:29:28;15.00;72.10
84298;DHT22;74466;51.188;3.242;2024-03-06T11:32:02;15.00;71.50
84298;DHT22;74466;51.188;3.242;2024-03-06T11:34:29;15.10;71.00
84298;DHT22;74466;51.188;3.242;2024-03-06T11:36:59;15.40;72.30
84298;DHT22;74466;51.188;3.242;2024-03-06T11:39:29;15.40;71.30
84298;DHT22;74466;51.188;3.242;2024-03-06T11:41:56;15.40;70.80
84298;DHT22;74466;51.188;3.242;2024-03-06T11:44:22;15.10;74.40
84298;DHT22;74466;51.188;3.242;2024-03-06T11:49:28;14.90;71.40
84298;DHT22;74466;51.188;3.242;2024-03-06T11:52:03;14.80;72.30
84298;DHT22;74466;51.188;3.242;2024-03-06T11:54:31;15.20;71.80
84298;DHT22;74466;51.188;3.242;2024-03-06T11:56:59;15.50;71.50
84298;DHT22;74466;51.188;3.242;2024-03-06T11:59:30;15.70;70.10
84298;DHT22;74466;51.188;3.242;2024-03-06T12:02:03;15.60;69.10
84298;DHT22;74466;51.188;3.242;2024-03-06T12:04:34;15.30;72.10
84298;DHT22;74466;51.188;3.242;2024-03-06T12:07:02;15.10;71.50
84298;DHT22;74466;51.188;3.242;2024-03-06T12:09:35;15.00;73.20
84298;DHT22;74466;51.188;3.242;2024-03-06T12:12:01;14.90;72.40
84298;DHT22;74466;51.188;3.242;2024-03-06T12:14:27;14.80;72.00
84298;DHT22;74466;51.188;3.242;2024-03-06T12:17:00;14.60;73.90
84298;DHT22;74466;51.188;3.242;2024-03-06T12:19:33;14.50;76.30
84298;DHT22;74466;51.188;3.242;2024-03-06T12:22:03;14.50;73.50
84298;DHT22;74466;51.188;3.242;2024-03-06T12:24:33;14.40;73.00
84298;DHT22;74466;51.188;3.242;2024-03-06T12:27:04;14.30;73.60
84298;DHT22;74466;51.188;3.242;2024-03-06T12:29:30;14.20;73.80
84298;DHT22;74466;51.188;3.242;2024-03-06T12:32:01;14.00;71.90
84298;DHT22;74466;51.188;3.242;2024-03-06T12:34:27;13.90;72.10
84298;DHT22;74466;51.188;3.242;2024-03-06T12:36:53;13.90;73.20
84298;DHT22;74466;51.188;3.242;2024-03-06T12:39:18;13.90;73.80
84298;DHT22;74466;51.188;3.242;2024-03-06T12:41:51;14.10;75.50
84298;DHT22;74466;51.188;3.242;2024-03-06T12:44:18;14.20;74.80
84298;DHT22;74466;51.188;3.242;2024-03-06T12:46:45;14.30;75.10
84298;DHT22;74466;51.188;3.242;2024-03-06T12:49:10;14.30;75.40
84298;DHT22;74466;51.188;3.242;2024-03-06T12:51:36;14.30;71.60
84298;DHT22;74466;51.188;3.242;2024-03-06T12:54:02;14.40;71.80
84298;DHT22;74466;51.188;3.242;2024-03-06T12:56:29;14.60;73.90
84298;DHT22;74466;51.188;3.242;2024-03-06T12:58:54;14.70;73.10
84298;DHT22;74466;51.188;3.242;2024-03-06T13:01:20;14.70;76.00
84298;DHT22;74466;51.188;3.242;2024-03-06T13:03:47;14.80;73.30
84298;DHT22;74466;51.188;3.242;2024-03-06T13:06:14;14.80;70.40
84298;DHT22;74466;51.188;3.242;2024-03-06T13:08:41;14.90;68.50
84298;DHT22;74466;51.188;3.242;2024-03-06T13:11:06;14.80;70.80
84298;DHT22;74466;51.188;3.242;2024-03-06T13:13:35;14.80;69.60
84298;DHT22;74466;51.188;3.242;2024-03-06T13:16:01;14.70;68.90
84298;DHT22;74466;51.188;3.242;2024-03-06T13:18:26;14.90;72.50
84298;DHT22;74466;51.188;3.242;2024-03-06T13:20:52;14.80;68.20
84298;DHT22;74466;51.188;3.242;2024-03-06T13:23:18;14.80;65.60
84298;DHT22;74466;51.188;3.242;2024-03-06T13:25:44;14.80;64.50
84298;DHT22;74466;51.188;3.242;2024-03-06T13:28:11;15.00;65.40
84298;DHT22;74466;51.188;3.242;2024-03-06T13:30:38;14.90;64.80
84298;DHT22;74466;51.188;3.242;2024-03-06T13:33:05;14.90;66.10
84298;DHT22;74466;51.188;3.242;2024-03-06T13:35:31;14.90;63.60
84298;DHT22;74466;51.188;3.242;2024-03-06T13:37:56;14.80;67.20
84298;DHT22;74466;51.188;3.242;2024-03-06T13:40:22;15.00;65.90
84298;DHT22;74466;51.188;3.242;2024-03-06T13:42:48;15.10;68.50
84298;DHT22;74466;51.188;3.242;2024-03-06T13:45:14;15.20;61.10
84298;DHT22;74466;51.188;3.242;2024-03-06T13:47:43;15.20;63.70
84298;DHT22;74466;51.188;3.242;2024-03-06T13:50:11;14.70;63.60
84298;DHT22;74466;51.188;3.242;2024-03-06T13:52:37;14.70;61.80
84298;DHT22;74466;51.188;3.242;2024-03-06T13:55:03;14.70;61.00
84298;DHT22;74466;51.188;3.242;2024-03-06T13:57:32;14.90;63.90
84298;DHT22;74466;51.188;3.242;2024-03-06T14:00:10;15.00;64.40
84298;DHT22;74466;51.188;3.242;2024-03-06T14:02:43;15.10;67.50
84298;DHT22;74466;51.188;3.242;2024-03-06T14:05:11;15.00;66.90
84298;DHT22;74466;51.188;3.242;2024-03-06T14:07:38;15.00;66.30
84298;DHT22;74466;51.188;3.242;2024-03-06T14:10:04;15.00;65.00
84298;DHT22;74466;51.188;3.242;2024-03-06T14:12:30;14.80;66.10
84298;DHT22;74466;51.188;3.242;2024-03-06T14:14:56;14.80;68.30
84298;DHT22;74466;51.188;3.242;2024-03-06T14:17:22;14.80;65.60
84298;DHT22;74466;51.188;3.242;2024-03-06T14:19:47;14.80;69.00
84298;DHT22;74466;51.188;3.242;2024-03-06T14:22:13;14.90;70.90
84298;DHT22;74466;51.188;3.242;2024-03-06T14:24:39;14.90;67.30
84298;DHT22;74466;51.188;3.242;2024-03-06T14:27:05;14.90;61.20
84298;DHT22;74466;51.188;3.242;2024-03-06T14:29:31;14.80;63.80
84298;DHT22;74466;51.188;3.242;2024-03-06T14:31:57;14.80;67.10
84298;DHT22;74466;51.188;3.242;2024-03-06T14:34:24;14.70;67.80
84298;DHT22;74466;51.188;3.242;2024-03-06T14:36:53;14.70;68.40
84298;DHT22;74466;51.188;3.242;2024-03-06T14:39:19;14.70;72.40
84298;DHT22;74466;51.188;3.242;2024-03-06T14:41:49;14.60;71.80
84298;DHT22;74466;51.188;3.242;2024-03-06T14:44:15;14.50;69.70
84298;DHT22;74466;51.188;3.242;2024-03-06T14:46:43;14.50;71.90
84298;DHT22;74466;51.188;3.242;2024-03-06T14:49:10;14.50;75.70
84298;DHT22;74466;51.188;3.242;2024-03-06T14:51:36;14.60;72.30
84298;DHT22;74466;51.188;3.242;2024-03-06T14:54:02;14.60;73.80
84298;DHT22;74466;51.188;3.242;2024-03-06T14:56:28;14.60;71.10
84298;DHT22;74466;51.188;3.242;2024-03-06T14:58:56;14.50;68.80
84298;DHT22;74466;51.188;3.242;2024-03-06T15:01:31;14.40;72.90
84298;DHT22;74466;51.188;3.242;2024-03-06T15:03:58;14.60;68.80
84298;DHT22;74466;51.188;3.242;2024-03-06T15:06:24;14.50;69.20
84298;DHT22;74466;51.188;3.242;2024-03-06T15:08:50;14.50;68.30
84298;DHT22;74466;51.188;3.242;2024-03-06T15:11:16;14.50;71.90
84298;DHT22;74466;51.188;3.242;2024-03-06T15:13:42;14.40;71.50
84298;DHT22;74466;51.188;3.242;2024-03-06T15:16:08;14.50;73.60
84298;DHT22;74466;51.188;3.242;2024-03-06T15:18:34;14.50;69.60
84298;DHT22;74466;51.188;3.242;2024-03-06T15:20:59;14.30;64.60
84298;DHT22;74466;51.188;3.242;2024-03-06T15:23:25;14.20;67.30
84298;DHT22;74466;51.188;3.242;2024-03-06T15:25:51;14.10;69.90
84298;DHT22;74466;51.188;3.242;2024-03-06T15:28:16;14.00;74.80
84298;DHT22;74466;51.188;3.242;2024-03-06T15:30:43;14.00;70.40
84298;DHT22;74466;51.188;3.242;2024-03-06T15:33:08;13.90;68.50
84298;DHT22;74466;51.188;3.242;2024-03-06T15:35:34;13.70;67.20
84298;DHT22;74466;51.188;3.242;2024-03-06T15:38:00;13.70;70.70
84298;DHT22;74466;51.188;3.242;2024-03-06T15:40:26;13.70;70.10
84298;DHT22;74466;51.188;3.242;2024-03-06T15:42:52;13.60;68.20